Terminal Aerodrome Forecast
Issued by NWS

Home | Current Version | Previous Version | Graphics & Text | Print | Product List | Glossary On
Versions: 1 2 3 4 5 6 7 8 9 10 11 12 13
189
FTUS43 KMPX 131720
TAFRWF
TAF
KRWF 131720Z 1318/1418 VRB04KT P6SM SKC
     FM140800 16006KT P6SM BKN110
     FM141500 18012KT P6SM SCT020 BKN035=

USA.gov is the U.S. government's official web portal to all federal, state and local government web resources and services.